Pitangui, Brazil
Current Conditions -  °F | °C
As of 3:00 PM on Saturday 25 Oct 2014 (Local Time) from SBPR Reporting Station
Scattered Clouds Scattered Clouds  
Wind Chill: 84°   Ceiling: Unl
Heat Index: 84°   Visibility: 6mi
Dew Point: 55°   Wind: 6mph
Humidity: 37%   Direction: 240°WSW
Pressure: 30"   Gusts: NA
Location:  19.68°S, 44.89°W
Report Text: SBPR 251700Z 24005KT 9999 SCT030 SCT080 29/13 Q1016
Loading
Personal Weather Stations






























Interactive Weather Map
Tropical Storm Tracking
New forecast layout! Learn more

10-Day Weather Forecast

Advertisements
Track Severe Weather on mobile